aviador You're here:

KGDP Decoded Metar

GUADALUPE PASS in TX, USA
Report Time2017-12-18 02:51:00
UTC Time2017-12-18 03:18:56
Flight Rules vfr VFR
Wind010° at 04 kt
W.Rank010° ranks 25
Current wind is below 010° avg. (10.3)
Visibility9999 m
Phenomena:N/A
Clouds:N/A
Expected CloudBase > 4,800 ft AGL from Temp-Dew spread
CeilingNone
Temp11°C (ISA +7)
Dew Point-1°C (44% RH)
AAT7.5°C
QNH1018 hPa
Density Alt6,293 ft
Elevation5,551 ft
Report Wrong Elevation
Raw Report
METAR KGDP 180251Z AUTO 01004KT 10SM CLR 11/M01 A3006 RMK AO2 SLP148
T01061006 51008=

Extra information for KGDP:More info

Metar Taf Metar & Taf Last 4 Metars F.Rules Stats Wind Profile Meteogram Temp Stats Airport Information Weather charts Add Link Nearby VenuesMetar ALERT Operation Metar Decoded Social comments

AIRNAV info for KGDP